Time;durP1;ratioP1;P1;durP2;ratioP2;P2;SDS_P1;SDS_P2;PMS_P1;PMS_P2;Temp;Humidity;BMP_temperature;BMP_pressure;BME280_temperature;BME280_humidity;BME280_pressure;Samples;Min_cycle;Max_cycle;Signal;HPM_P1;HPM_P2
2022/12/29 00:01:22;;;;;;;2.30;1.98;;;;;;;11.50;82.08;100003.34;4874591;29;20088;-92
2022/12/29 00:03:47;;;;;;;1.60;1.50;;;;;;;11.53;81.44;100004.97;4878058;29;20025;-93
2022/12/29 00:06:12;;;;;;;3.50;1.63;;;;;;;11.57;81.33;100012.66;4858878;29;20501;-93
2022/12/29 00:08:41;;;;;;;1.52;1.27;;;;;;;11.56;80.90;99978.28;4861029;29;20033;-92
2022/12/29 00:11:24;;;;;;;1.15;1.00;;;;;;;11.51;80.38;99994.44;4876560;29;20544;-93
2022/12/29 00:16:34;;;;;;;1.50;0.98;;;;;;;11.78;79.45;99997.28;4870353;29;20118;-93
2022/12/29 00:19:01;;;;;;;1.08;0.70;;;;;;;11.61;79.44;99990.34;4860350;29;20512;-93
2022/12/29 00:35:08;;;;;;;0.73;0.55;;;;;;;11.33;80.15;99953.16;4875445;29;20461;-95
2022/12/29 00:45:54;;;;;;;1.15;0.50;;;;;;;11.05;83.54;99953.88;4874463;29;20048;-93
2022/12/29 00:49:29;;;;;;;1.50;0.70;;;;;;;10.99;84.13;99952.44;4860794;29;20029;-94
2022/12/29 00:51:05;;;;;;;0.77;0.70;;;;;;;10.93;84.94;99958.91;4877931;29;20036;-95
2022/12/29 00:53:30;;;;;;;1.83;1.13;;;;;;;10.87;85.60;99943.41;4874755;29;20088;-94
2022/12/29 00:55:56;;;;;;;2.15;1.10;;;;;;;10.80;86.59;99930.59;4845026;29;20040;-94
2022/12/29 00:58:21;;;;;;;1.70;1.60;;;;;;;10.77;87.04;99926.34;4858878;29;20025;-93
2022/12/29 01:00:46;;;;;;;1.70;1.60;;;;;;;10.73;88.16;99928.31;4874592;29;20405;-92
2022/12/29 01:03:11;;;;;;;2.22;2.03;;;;;;;10.79;88.13;99924.47;4854156;29;20100;-94
2022/12/29 01:05:37;;;;;;;2.33;2.08;;;;;;;10.87;88.32;99930.19;4873088;29;20382;-94
2022/12/29 01:08:03;;;;;;;2.67;2.10;;;;;;;10.92;88.06;99922.00;4858240;29;20180;-95
2022/12/29 01:10:29;;;;;;;4.00;1.92;;;;;;;11.00;87.21;99911.81;4871203;29;20238;-94
2022/12/29 01:12:54;;;;;;;3.15;1.90;;;;;;;11.11;87.19;99911.22;4855788;29;20221;-94
2022/12/29 01:15:19;;;;;;;2.28;1.85;;;;;;;11.06;86.50;99902.69;4856283;29;20065;-94
2022/12/29 01:17:45;;;;;;;2.13;1.65;;;;;;;11.14;86.66;99893.34;4855010;29;20019;-94
2022/12/29 01:20:11;;;;;;;2.13;1.73;;;;;;;11.33;85.49;99924.03;4856367;29;20185;-93
2022/12/29 01:22:36;;;;;;;1.63;1.50;;;;;;;11.34;85.36;99909.91;4854688;29;20029;-94
2022/12/29 01:25:03;;;;;;;1.85;1.60;;;;;;;11.41;84.86;99919.16;4856831;29;20025;-94
2022/12/29 01:27:28;;;;;;;1.30;1.20;;;;;;;11.36;84.05;99894.78;4824584;29;20076;-94
2022/12/29 01:29:54;;;;;;;2.15;1.30;;;;;;;11.40;84.30;99905.09;4867139;29;20499;-95
2022/12/29 01:32:19;;;;;;;2.85;1.10;;;;;;;11.27;83.45;99874.13;4856783;29;20074;-95
2022/12/29 01:34:44;;;;;;;1.58;1.30;;;;;;;11.35;83.10;99874.56;4852084;29;20383;-94
2022/12/29 01:37:10;;;;;;;1.02;1.00;;;;;;;11.41;83.08;99882.13;4852717;29;20065;-94
2022/12/29 01:39:35;;;;;;;1.23;0.95;;;;;;;11.44;82.63;99896.03;4868536;29;20101;-94
2022/12/29 01:42:01;;;;;;;1.58;0.90;;;;;;;11.41;82.57;99876.81;4851515;29;20120;-94
2022/12/29 01:44:50;;;;;;;1.50;0.85;;;;;;;11.54;82.18;99901.63;4851535;29;20028;-93
2022/12/29 01:47:26;;;;;;;1.15;0.90;;;;;;;11.63;81.12;99902.88;4848200;29;20459;-95
2022/12/29 01:49:57;;;;;;;2.42;1.10;;;;;;;11.66;80.63;99908.84;4846851;29;20090;-94
2022/12/29 01:52:26;;;;;;;4.43;1.20;;;;;;;11.69;80.57;99910.44;4859081;29;20067;-93
2022/12/29 01:54:55;;;;;;;2.53;0.80;;;;;;;11.74;80.21;99898.63;4855374;29;20026;-92
2022/12/29 01:57:29;;;;;;;2.75;1.00;;;;;;;11.77;79.54;99904.72;4852932;29;20407;-94
2022/12/29 02:00:09;;;;;;;1.70;1.00;;;;;;;11.91;79.09;99904.75;4846667;29;20093;-94
2022/12/29 02:02:35;;;;;;;1.50;0.88;;;;;;;11.80;79.09;99894.78;4848616;29;20474;-94
2022/12/29 02:05:08;;;;;;;1.77;0.85;;;;;;;11.87;78.37;99912.03;4850090;29;20112;-94
2022/12/29 02:07:34;;;;;;;1.30;0.80;;;;;;;11.89;78.34;99890.75;4852486;29;20070;-93
2022/12/29 02:10:01;;;;;;;1.30;0.60;;;;;;;11.91;78.10;99905.59;4847591;29;20037;-94
2022/12/29 02:12:26;;;;;;;1.80;0.77;;;;;;;11.91;77.93;99899.47;4851479;29;20038;-93
2022/12/29 02:14:58;;;;;;;3.55;0.93;;;;;;;11.79;77.66;99874.53;4849865;29;20402;-93
2022/12/29 02:17:45;;;;;;;1.85;0.90;;;;;;;11.87;78.02;99893.50;4850840;29;20029;-94
2022/12/29 02:20:37;;;;;;;1.10;0.68;;;;;;;12.00;77.45;99896.25;4846376;29;20508;-93
2022/12/29 02:23:40;;;;;;;0.60;0.60;;;;;;;12.07;77.31;99904.66;4819701;29;20041;-93
2022/12/29 02:26:27;;;;;;;1.55;0.60;;;;;;;12.11;76.84;99907.03;4851207;29;20031;-92
2022/12/29 02:29:18;;;;;;;4.30;0.70;;;;;;;12.02;76.33;99883.75;4847798;29;20037;-94
2022/12/29 02:32:00;;;;;;;3.30;0.80;;;;;;;12.07;76.65;99892.25;4851435;29;20033;-93
2022/12/29 02:34:51;;;;;;;3.33;0.68;;;;;;;12.02;76.03;99898.81;4848504;29;20520;-93
2022/12/29 02:37:43;;;;;;;1.65;0.60;;;;;;;12.11;76.14;99880.53;4865898;29;20401;-92
2022/12/29 02:40:24;;;;;;;1.70;0.70;;;;;;;12.09;76.61;99893.03;4839805;29;20119;-93
2022/12/29 02:43:05;;;;;;;1.40;0.70;;;;;;;11.97;76.05;99870.78;4842024;29;20419;-93
2022/12/29 02:45:45;;;;;;;1.35;0.63;;;;;;;11.97;76.73;99867.28;4855208;29;20534;-94
2022/12/29 02:48:21;;;;;;;2.25;0.80;;;;;;;12.01;76.54;99879.41;4857237;29;20029;-92
2022/12/29 02:51:03;;;;;;;2.33;0.75;;;;;;;12.05;77.05;99893.31;4857780;29;20568;-92
2022/12/29 02:56:17;;;;;;;3.97;0.98;;;;;;;11.96;77.03;99878.84;4875017;29;20051;-93
2022/12/29 02:58:43;;;;;;;4.03;0.70;;;;;;;11.90;77.02;99858.03;4838727;29;20372;-92
2022/12/29 03:01:35;;;;;;;1.73;0.57;;;;;;;11.95;77.42;99863.91;4867803;29;20035;-94
2022/12/29 03:04:28;;;;;;;2.50;0.80;;;;;;;11.91;77.22;99859.72;4851424;29;20031;-93
2022/12/29 03:07:33;;;;;;;1.55;0.85;;;;;;;11.83;77.69;99856.69;4854565;29;20037;-93
2022/12/29 03:10:12;;;;;;;1.05;0.73;;;;;;;11.81;76.75;99846.16;4871689;29;20033;-92
2022/12/29 03:16:03;;;;;;;1.42;0.70;;;;;;;11.85;76.27;99838.94;4872627;29;20092;-95
2022/12/29 03:18:45;;;;;;;1.73;0.73;;;;;;;11.89;76.06;99861.59;4876901;29;20385;-93
2022/12/29 03:21:17;;;;;;;1.05;0.60;;;;;;;11.90;76.06;99856.22;4875260;29;20112;-93
2022/12/29 03:23:47;;;;;;;1.83;0.68;;;;;;;11.78;76.20;99837.56;4858633;29;20074;-93
2022/12/29 03:26:15;;;;;;;1.45;0.57;;;;;;;11.88;76.74;99860.75;4876051;29;20035;-93
2022/12/29 03:28:48;;;;;;;1.17;0.55;;;;;;;11.92;76.93;99869.38;4861440;29;20404;-93
2022/12/29 03:31:15;;;;;;;2.13;0.60;;;;;;;11.96;76.25;99857.66;4859630;29;20096;-92
2022/12/29 03:33:42;;;;;;;2.75;0.60;;;;;;;11.84;76.62;99839.84;4844677;29;20049;-94
2022/12/29 03:36:13;;;;;;;2.40;0.90;;;;;;;11.73;76.55;99841.34;4860265;29;20140;-93
2022/12/29 03:38:55;;;;;;;3.17;0.70;;;;;;;11.78;76.49;99827.81;4876755;29;20029;-94
2022/12/29 03:41:27;;;;;;;2.67;0.77;;;;;;;11.71;76.92;99845.03;4860953;29;20064;-93
2022/12/29 03:43:52;;;;;;;2.00;0.75;;;;;;;11.57;77.42;99845.88;4876346;29;20032;-93
2022/12/29 03:46:17;;;;;;;2.50;0.70;;;;;;;11.43;77.78;99836.09;4862178;29;20468;-92
2022/12/29 03:48:43;;;;;;;1.40;0.70;;;;;;;11.43;77.62;99844.03;4854920;29;20033;-93
2022/12/29 03:51:08;;;;;;;1.42;0.55;;;;;;;11.51;77.59;99854.16;4859539;29;20029;-93
2022/12/29 03:53:33;;;;;;;1.73;0.75;;;;;;;11.46;77.67;99822.66;4859578;29;20520;-93
2022/12/29 03:55:58;;;;;;;2.55;0.60;;;;;;;11.30;77.99;99842.22;4873750;29;20029;-92
2022/12/29 03:58:24;;;;;;;1.20;0.60;;;;;;;11.38;77.42;99858.50;4861630;29;20489;-93
2022/12/29 04:00:49;;;;;;;1.25;0.73;;;;;;;11.47;77.34;99845.56;4859335;29;20556;-92
2022/12/29 04:03:14;;;;;;;2.53;0.90;;;;;;;11.52;77.64;99858.53;4856078;29;20033;-91
2022/12/29 04:05:40;;;;;;;4.07;0.80;;;;;;;11.46;77.99;99859.72;4859863;29;20038;-92
2022/12/29 04:08:05;;;;;;;1.15;0.60;;;;;;;11.17;79.44;99866.75;4877361;29;20109;-92
2022/12/29 04:10:30;;;;;;;1.45;0.70;;;;;;;11.14;79.90;99861.63;4859948;29;20080;-93
2022/12/29 04:12:56;;;;;;;2.47;0.85;;;;;;;11.11;80.31;99858.31;4874126;29;20397;-93
2022/12/29 04:15:22;;;;;;;2.40;0.70;;;;;;;10.93;82.61;99831.13;4861363;29;20067;-93
2022/12/29 04:17:49;;;;;;;4.32;0.80;;;;;;;10.88;82.23;99862.28;4861729;29;20032;-94
2022/12/29 04:23:02;;;;;;;2.53;0.80;;;;;;;10.78;82.16;99890.19;4878974;29;20565;-94
2022/12/29 04:25:30;;;;;;;2.42;0.60;;;;;;;10.71;81.69;99882.59;4878095;29;20470;-94
2022/12/29 04:27:55;;;;;;;2.97;1.23;;;;;;;10.86;81.66;99898.53;4878867;29;20036;-94
2022/12/29 04:30:21;;;;;;;4.20;0.90;;;;;;;10.82;81.00;99889.06;4873337;29;20464;-94
2022/12/29 04:32:47;;;;;;;1.75;0.60;;;;;;;10.78;81.32;99877.81;4867952;29;20036;-95
2022/12/29 04:35:12;;;;;;;2.63;0.73;;;;;;;10.77;81.05;99881.41;4857614;29;20068;-93
2022/12/29 04:37:38;;;;;;;2.90;0.75;;;;;;;10.73;80.79;99883.38;4875431;29;20037;-93
2022/12/29 04:40:03;;;;;;;1.95;0.70;;;;;;;10.72;80.42;99883.44;4859014;29;20379;-93
2022/12/29 04:42:29;;;;;;;2.85;1.20;;;;;;;10.67;79.87;99898.69;4861825;29;20400;-94
2022/12/29 04:44:55;;;;;;;2.53;0.70;;;;;;;10.83;79.32;99906.66;4856206;29;20036;-94
2022/12/29 04:47:20;;;;;;;1.33;0.73;;;;;;;10.73;79.73;99895.72;4860273;29;20037;-93
2022/12/29 04:49:45;;;;;;;1.58;0.70;;;;;;;10.59;79.73;99900.94;4851784;29;20037;-93
2022/12/29 04:52:10;;;;;;;3.00;0.90;;;;;;;10.51;79.95;99911.91;4854082;29;20096;-94
2022/12/29 04:54:36;;;;;;;3.97;0.88;;;;;;;10.50;79.45;99912.88;4858407;29;20029;-93
2022/12/29 04:57:01;;;;;;;5.25;0.90;;;;;;;10.41;79.26;99913.38;4859024;29;20112;-94
2022/12/29 04:59:27;;;;;;;6.55;0.75;;;;;;;10.44;79.08;99929.91;4857795;29;20209;-93
2022/12/29 05:01:52;;;;;;;3.83;0.82;;;;;;;10.65;78.57;99929.66;4857613;29;20468;-95
2022/12/29 05:04:17;;;;;;;2.97;1.00;;;;;;;10.57;77.82;99916.00;4844733;29;20037;-92
2022/12/29 05:06:43;;;;;;;4.70;0.90;;;;;;;10.73;77.35;99924.81;4875110;29;20591;-94
2022/12/29 05:09:08;;;;;;;3.80;0.98;;;;;;;10.59;77.26;99922.09;4856205;29;20112;-93
2022/12/29 05:11:33;;;;;;;3.45;1.00;;;;;;;10.57;76.94;99927.44;4875848;29;20029;-94
2022/12/29 05:13:59;;;;;;;4.88;0.88;;;;;;;10.51;76.29;99914.56;4858543;29;20030;-93
2022/12/29 05:16:24;;;;;;;2.63;0.70;;;;;;;10.55;76.63;99934.59;4857058;29;20537;-93
2022/12/29 05:18:49;;;;;;;2.65;0.98;;;;;;;10.51;76.36;99938.34;4859712;29;20397;-93
2022/12/29 05:21:14;;;;;;;5.10;0.98;;;;;;;10.48;75.75;99946.44;4861045;29;20044;-93
2022/12/29 05:23:40;;;;;;;2.25;0.85;;;;;;;10.51;75.62;99943.63;4860672;29;20688;-92
2022/12/29 05:26:05;;;;;;;1.90;0.70;;;;;;;10.52;75.92;99961.19;4858652;29;20472;-93
2022/12/29 05:28:30;;;;;;;4.72;0.90;;;;;;;10.63;75.49;99965.88;4855371;29;20036;-92
2022/12/29 05:30:56;;;;;;;3.63;1.00;;;;;;;10.60;75.54;99952.84;4851861;29;20124;-92
2022/12/29 05:33:21;;;;;;;4.85;1.02;;;;;;;10.60;75.70;99955.50;4860448;29;20091;-93
2022/12/29 05:35:46;;;;;;;5.85;0.88;;;;;;;10.75;75.29;99967.03;4860027;29;20057;-93
2022/12/29 05:38:12;;;;;;;6.28;0.80;;;;;;;10.76;75.46;99969.56;4852249;29;20094;-93
2022/12/29 05:40:37;;;;;;;2.17;0.82;;;;;;;10.70;75.70;99965.47;4842872;29;20044;-92
2022/12/29 05:43:02;;;;;;;4.78;1.17;;;;;;;10.68;75.63;99964.72;4859662;29;20061;-94
2022/12/29 05:45:28;;;;;;;6.88;1.13;;;;;;;10.76;75.50;99980.16;4872488;29;20025;-92
2022/12/29 05:47:53;;;;;;;3.53;0.75;;;;;;;10.69;75.39;99976.16;4869510;29;20028;-93
2022/12/29 05:50:18;;;;;;;3.70;1.17;;;;;;;10.78;75.21;99988.00;4857901;29;20041;-93
2022/12/29 05:52:44;;;;;;;2.92;0.77;;;;;;;10.67;74.18;99965.63;4859717;29;20481;-93
2022/12/29 05:55:09;;;;;;;3.13;0.93;;;;;;;10.88;73.80;99976.00;4875089;29;20068;-92
2022/12/29 05:57:34;;;;;;;3.42;0.82;;;;;;;10.95;72.94;99987.91;4862759;29;20036;-92
2022/12/29 06:00:00;;;;;;;4.53;0.90;;;;;;;10.87;73.08;99984.88;4876843;29;20408;-94
2022/12/29 06:02:28;;;;;;;1.83;0.80;;;;;;;10.93;72.88;99981.88;4860197;29;20035;-92
2022/12/29 06:04:53;;;;;;;1.52;0.68;;;;;;;10.99;72.05;99981.53;4874898;29;20033;-93
2022/12/29 06:07:19;;;;;;;2.97;0.75;;;;;;;11.10;72.15;99986.22;4869558;29;20029;-93
2022/12/29 06:09:44;;;;;;;1.77;0.60;;;;;;;11.13;71.72;99994.84;4871802;29;20040;-93
2022/12/29 06:12:09;;;;;;;3.00;1.02;;;;;;;11.01;73.11;99992.88;4859492;29;20500;-92
2022/12/29 06:14:34;;;;;;;4.00;0.75;;;;;;;11.04;72.27;100002.44;4856189;29;20040;-94
2022/12/29 06:17:00;;;;;;;2.80;0.82;;;;;;;11.14;72.40;99999.16;4858260;29;20025;-93
2022/12/29 06:19:25;;;;;;;1.38;0.70;;;;;;;11.09;72.54;99982.72;4861554;29;20041;-93
2022/12/29 06:21:52;;;;;;;3.63;1.13;;;;;;;11.05;72.47;99994.44;4860307;29;20064;-94
2022/12/29 06:24:17;;;;;;;2.72;0.70;;;;;;;11.02;72.32;99968.13;4846276;29;20037;-93
2022/12/29 06:26:43;;;;;;;7.95;1.15;;;;;;;11.03;71.61;99969.00;4860095;29;20036;-92
2022/12/29 06:29:10;;;;;;;2.05;0.98;;;;;;;11.03;71.67;99990.16;4856852;29;20040;-94
2022/12/29 06:31:35;;;;;;;3.83;0.82;;;;;;;10.96;71.29;99965.84;4872723;29;20020;-94
2022/12/29 06:34:00;;;;;;;3.85;0.63;;;;;;;10.98;71.22;99970.09;4853606;29;20096;-94
2022/12/29 06:36:26;;;;;;;4.85;1.23;;;;;;;11.10;71.04;99991.53;4857289;29;20498;-93
2022/12/29 06:38:54;;;;;;;2.97;0.80;;;;;;;10.84;71.31;99955.94;4857416;29;20039;-92
2022/12/29 06:41:20;;;;;;;2.72;0.77;;;;;;;10.84;71.83;99963.88;4870290;29;20040;-94
2022/12/29 06:43:45;;;;;;;5.78;1.23;;;;;;;10.82;70.94;99960.44;4868593;29;20089;-92
2022/12/29 06:46:11;;;;;;;4.72;1.05;;;;;;;10.76;71.15;99963.44;4859380;29;20032;-93
2022/12/29 06:48:36;;;;;;;4.57;0.90;;;;;;;10.78;71.56;99970.34;4856809;29;20120;-92
2022/12/29 06:51:01;;;;;;;7.95;1.63;;;;;;;10.71;71.13;99929.31;4864248;29;20025;-93
2022/12/29 06:53:27;;;;;;;6.82;2.17;;;;;;;10.95;70.89;99985.28;4873394;29;20081;-93
2022/12/29 06:55:52;;;;;;;4.65;1.00;;;;;;;10.90;70.72;99972.31;4859577;29;20308;-93
2022/12/29 06:58:18;;;;;;;4.63;0.95;;;;;;;10.87;71.02;99955.78;4856216;29;20450;-93
2022/12/29 07:00:43;;;;;;;4.20;1.70;;;;;;;10.76;70.27;99958.16;4858655;29;20029;-93
2022/12/29 07:03:08;;;;;;;4.32;1.00;;;;;;;10.79;70.73;99966.75;4856694;29;20249;-93
2022/12/29 07:05:34;;;;;;;1.75;0.98;;;;;;;10.82;70.61;99960.44;4856963;29;20128;-93
2022/12/29 07:07:59;;;;;;;2.80;1.30;;;;;;;10.79;71.13;99984.44;4873824;29;20401;-95
2022/12/29 07:10:25;;;;;;;3.03;1.00;;;;;;;10.82;70.78;99979.81;4860067;29;20021;-94
2022/12/29 07:12:51;;;;;;;4.70;0.85;;;;;;;10.88;69.93;99974.19;4853683;29;20407;-93
2022/12/29 07:15:16;;;;;;;8.18;1.35;;;;;;;10.99;70.16;99986.81;4858428;29;20093;-93
2022/12/29 07:17:41;;;;;;;4.88;1.15;;;;;;;10.97;69.64;99999.28;4846422;29;20466;-93
2022/12/29 07:20:08;;;;;;;5.50;1.08;;;;;;;10.94;69.48;99981.78;4871803;29;20526;-93
2022/12/29 07:22:33;;;;;;;4.43;0.95;;;;;;;10.91;69.83;99992.53;4854595;29;20497;-94
2022/12/29 07:24:58;;;;;;;3.15;1.00;;;;;;;11.03;68.61;100016.59;4856129;29;20117;-93
2022/12/29 07:27:23;;;;;;;3.63;1.13;;;;;;;10.97;69.45;100018.66;4855788;29;20123;-95
2022/12/29 07:29:49;;;;;;;4.18;1.27;;;;;;;11.02;68.73;100005.16;4858156;29;20029;-93
2022/12/29 07:32:14;;;;;;;3.72;0.82;;;;;;;10.96;68.45;100009.00;4856428;29;20029;-92
2022/12/29 07:34:40;;;;;;;5.07;1.23;;;;;;;10.93;68.42;100024.19;4872409;29;20161;-96
2022/12/29 07:37:06;;;;;;;5.80;1.45;;;;;;;11.02;67.56;100047.50;4862341;29;20033;-93
2022/12/29 07:39:31;;;;;;;5.35;1.10;;;;;;;10.85;68.29;100045.75;4874144;29;20434;-93
2022/12/29 07:41:56;;;;;;;5.28;1.02;;;;;;;10.96;68.10;100042.53;4860664;29;20172;-93
2022/12/29 07:44:22;;;;;;;6.68;1.45;;;;;;;10.78;67.81;100025.03;4857609;29;20081;-92
2022/12/29 07:46:47;;;;;;;4.97;1.50;;;;;;;10.83;68.73;100030.91;4867038;29;20029;-94
2022/12/29 07:49:12;;;;;;;6.68;1.48;;;;;;;10.86;68.06;100033.38;4845079;29;20413;-91
2022/12/29 07:51:37;;;;;;;5.45;1.38;;;;;;;10.89;68.29;100049.94;4856713;29;20040;-95
2022/12/29 07:54:03;;;;;;;6.22;1.42;;;;;;;10.86;67.79;100015.72;4859369;29;20119;-93
2022/12/29 07:56:28;;;;;;;10.05;1.35;;;;;;;10.98;67.95;100043.28;4859656;29;20457;-94
2022/12/29 07:58:53;;;;;;;7.22;1.40;;;;;;;10.92;68.01;100017.19;4875061;29;20029;-94
2022/12/29 08:01:21;;;;;;;3.15;1.30;;;;;;;10.90;67.50;100030.47;4862190;29;20096;-95
2022/12/29 08:03:46;;;;;;;5.53;1.42;;;;;;;10.95;68.38;100046.09;4885241;29;20139;-96
2022/12/29 08:06:13;;;;;;;6.88;1.20;;;;;;;10.92;68.68;100041.00;4866451;29;20070;-96
2022/12/29 08:08:40;;;;;;;12.52;1.30;;;;;;;10.89;68.95;100035.88;4873582;29;20472;-94
2022/12/29 08:11:05;;;;;;;7.63;1.52;;;;;;;10.81;68.38;100032.78;4868241;29;20025;-95
2022/12/29 08:13:31;;;;;;;7.30;1.30;;;;;;;10.92;68.03;100054.22;4870506;29;20085;-96
2022/12/29 08:16:00;;;;;;;7.28;1.23;;;;;;;10.99;68.25;100047.66;4871882;29;20033;-96
2022/12/29 08:18:25;;;;;;;8.40;1.50;;;;;;;11.01;66.95;100055.53;4864676;29;20482;-95
2022/12/29 08:20:52;;;;;;;6.20;1.33;;;;;;;10.93;66.74;100056.78;4876755;29;20025;-96
2022/12/29 08:23:18;;;;;;;3.88;1.33;;;;;;;10.97;67.19;100074.19;4891741;29;20033;-95
2022/12/29 08:25:59;;;;;;;8.18;1.52;;;;;;;11.02;66.37;100041.34;4878774;29;20064;-95
2022/12/29 08:28:26;;;;;;;4.18;1.20;;;;;;;10.91;66.56;100028.69;4894913;29;20115;-95
2022/12/29 08:30:52;;;;;;;7.38;1.55;;;;;;;11.05;66.33;100062.31;4877751;29;20033;-95
2022/12/29 08:33:17;;;;;;;3.70;1.42;;;;;;;11.00;65.96;100059.94;4872775;29;20043;-95
2022/12/29 08:35:45;;;;;;;4.55;1.40;;;;;;;11.10;66.00;100069.09;4865625;29;20065;-96
2022/12/29 08:38:20;;;;;;;5.70;1.13;;;;;;;11.06;65.97;100069.34;4884006;29;20036;-95
2022/12/29 08:40:51;;;;;;;6.28;1.20;;;;;;;11.01;66.43;100050.22;4871184;29;20410;-95
2022/12/29 08:43:18;;;;;;;9.57;1.60;;;;;;;10.92;65.56;100038.34;4869199;29;20033;-95
2022/12/29 08:45:46;;;;;;;7.30;1.30;;;;;;;11.10;65.49;100045.28;4861507;29;20486;-95
2022/12/29 08:48:12;;;;;;;5.80;1.15;;;;;;;11.11;65.16;100039.06;4866222;29;20037;-95
2022/12/29 08:50:37;;;;;;;10.07;1.48;;;;;;;11.12;65.36;100055.78;4858879;29;20036;-96
2022/12/29 08:53:03;;;;;;;6.07;1.35;;;;;;;11.29;65.23;100073.38;4873216;29;20022;-95
2022/12/29 08:55:28;;;;;;;7.32;1.52;;;;;;;11.21;65.07;100045.53;4860742;29;20436;-96
2022/12/29 08:57:53;;;;;;;6.22;1.38;;;;;;;11.22;64.90;100047.22;4861925;29;20482;-95
2022/12/29 09:00:20;;;;;;;8.43;1.40;;;;;;;11.27;64.96;100048.78;4877310;29;20040;-95
2022/12/29 09:02:46;;;;;;;9.15;1.88;;;;;;;11.03;65.68;100037.75;4863210;29;20093;-95
2022/12/29 09:05:14;;;;;;;6.95;1.30;;;;;;;11.09;65.41;100046.19;4862744;29;20021;-95
2022/12/29 09:07:39;;;;;;;6.57;1.58;;;;;;;11.09;64.54;100037.41;4853843;29;20266;-94
2022/12/29 09:10:06;;;;;;;5.63;1.50;;;;;;;11.22;65.78;100054.31;4874573;29;20487;-94
2022/12/29 09:12:32;;;;;;;6.00;1.80;;;;;;;11.14;64.84;100065.31;4862271;29;20044;-96
2022/12/29 09:14:57;;;;;;;5.93;1.45;;;;;;;11.26;64.90;100079.69;4851831;29;20026;-95
2022/12/29 09:20:15;;;;;;;2.85;0.90;;;;;;;11.37;67.28;100100.25;4857164;29;20085;-96
2022/12/29 09:22:46;;;;;;;6.10;1.50;;;;;;;11.16;66.43;100084.63;4869498;29;20041;-95
2022/12/29 09:25:12;;;;;;;8.50;1.25;;;;;;;11.11;66.65;100078.72;4888004;29;20029;-95
2022/12/29 09:27:42;;;;;;;3.88;1.23;;;;;;;11.06;67.54;100085.22;4871535;29;20026;-96
2022/12/29 09:30:15;;;;;;;4.70;1.17;;;;;;;10.78;69.86;100067.34;4873931;29;20096;-95
2022/12/29 09:32:40;;;;;;;7.53;1.45;;;;;;;10.72;69.24;100069.38;4869037;29;20041;-94
2022/12/29 09:35:06;;;;;;;4.80;1.23;;;;;;;10.72;68.84;100110.78;4867477;29;20141;-94
2022/12/29 09:37:32;;;;;;;5.28;1.05;;;;;;;10.88;69.86;100113.50;4866444;29;20161;-95
2022/12/29 09:39:59;;;;;;;9.80;1.85;;;;;;;10.90;69.82;100112.47;4866734;29;20037;-95
2022/12/29 09:42:35;;;;;;;6.75;1.42;;;;;;;10.90;69.81;100122.19;4863670;29;20029;-95
2022/12/29 09:45:18;;;;;;;7.35;1.40;;;;;;;10.93;70.18;100119.38;4866818;29;20017;-95
2022/12/29 09:47:44;;;;;;;10.57;1.92;;;;;;;10.84;71.21;100130.44;4866450;29;20021;-96
2022/12/29 09:50:37;;;;;;;13.00;1.92;;;;;;;10.96;70.57;100129.81;4861664;29;20561;-95
2022/12/29 09:53:19;;;;;;;5.95;1.20;;;;;;;10.75;69.67;100091.28;4874234;29;20341;-95
2022/12/29 09:55:48;;;;;;;3.45;1.05;;;;;;;10.86;70.66;100140.00;4887646;29;20027;-95
2022/12/29 09:58:22;;;;;;;6.65;1.65;;;;;;;10.88;70.59;100139.94;4878488;29;20052;-96
2022/12/29 10:01:31;;;;;;;5.13;1.38;;;;;;;10.61;71.23;100114.00;4875573;29;20060;-96
2022/12/29 10:04:02;;;;;;;5.45;1.27;;;;;;;10.71;72.17;100140.81;4857603;29;20053;-96
2022/12/29 10:06:46;;;;;;;6.15;1.27;;;;;;;10.72;72.88;100155.72;4873232;29;20036;-95
2022/12/29 10:10:05;;;;;;;7.20;1.27;;;;;;;10.56;72.80;100179.47;4880086;29;20123;-96
2022/12/29 10:12:43;;;;;;;3.40;0.98;;;;;;;10.41;77.46;100170.53;4825653;29;20034;-96
2022/12/29 10:15:29;;;;;;;6.53;1.90;;;;;;;10.30;78.38;100178.13;4830128;29;20063;-95
2022/12/29 10:18:38;;;;;;;4.70;1.10;;;;;;;10.08;77.06;100157.16;4851575;29;20040;-96
2022/12/29 10:21:13;;;;;;;5.28;1.20;;;;;;;10.36;76.73;100198.13;4873930;29;20037;-96
2022/12/29 10:24:12;;;;;;;7.35;1.70;;;;;;;10.08;79.09;100169.53;4874680;29;20064;-96
2022/12/29 10:26:43;;;;;;;8.95;1.45;;;;;;;10.12;79.54;100197.50;4871685;29;20037;-96
2022/12/29 10:29:22;;;;;;;7.20;1.20;;;;;;;10.17;79.75;100219.25;4860991;29;20383;-96
2022/12/29 10:32:10;;;;;;;5.57;1.40;;;;;;;10.26;78.93;100217.97;4849080;29;20041;-95
2022/12/29 10:35:04;;;;;;;5.43;1.30;;;;;;;10.18;78.58;100203.34;4853892;29;20037;-96
2022/12/29 10:37:49;;;;;;;6.10;1.13;;;;;;;9.99;80.03;100236.84;4864160;29;20045;-96
2022/12/29 10:40:40;;;;;;;7.65;1.58;;;;;;;9.95;82.56;100227.34;4861947;29;20041;-95
2022/12/29 10:43:52;;;;;;;6.72;1.58;;;;;;;9.78;80.76;100206.16;4859495;29;20119;-95
2022/12/29 10:46:27;;;;;;;8.45;1.52;;;;;;;9.59;83.26;100198.25;4844528;29;20046;-95
2022/12/29 10:48:56;;;;;;;7.40;1.58;;;;;;;9.49;85.21;100223.34;4833261;29;20033;-94
2022/12/29 10:51:29;;;;;;;8.35;1.38;;;;;;;9.52;84.23;100226.72;4826268;29;20103;-95
2022/12/29 10:54:14;;;;;;;7.65;1.45;;;;;;;9.74;84.10;100244.19;4854216;29;20638;-95
2022/12/29 10:56:47;;;;;;;5.28;1.42;;;;;;;9.93;82.55;100242.38;4852073;29;20046;-95
2022/12/29 10:59:22;;;;;;;9.38;1.52;;;;;;;9.91;81.41;100246.91;4849758;29;20040;-95
2022/12/29 11:01:58;;;;;;;5.10;1.73;;;;;;;10.03;80.74;100263.97;4871906;29;20699;-96
2022/12/29 11:04:33;;;;;;;6.50;1.38;;;;;;;10.15;80.21;100271.28;4858954;29;20041;-96
2022/12/29 11:07:00;;;;;;;7.22;1.65;;;;;;;9.97;80.97;100260.66;4880823;29;20431;-94
2022/12/29 11:09:32;;;;;;;9.75;1.70;;;;;;;10.02;81.48;100267.50;4881853;29;20040;-96
2022/12/29 11:12:00;;;;;;;8.60;1.77;;;;;;;10.00;81.28;100269.38;4882863;29;20040;-95
2022/12/29 11:14:30;;;;;;;5.22;1.50;;;;;;;9.75;82.84;100256.47;4875185;29;20021;-95
2022/12/29 11:17:01;;;;;;;6.65;1.58;;;;;;;9.83;82.18;100281.56;4878372;29;20120;-95
2022/12/29 11:19:30;;;;;;;5.15;1.63;;;;;;;9.91;82.46;100284.72;4868499;29;20040;-94
2022/12/29 11:22:14;;;;;;;6.22;1.67;;;;;;;10.01;82.38;100292.22;4862686;29;20458;-96
2022/12/29 11:24:47;;;;;;;6.50;1.60;;;;;;;9.98;81.59;100287.94;4861783;29;20030;-96
2022/12/29 11:27:22;;;;;;;7.30;1.70;;;;;;;9.92;81.53;100294.34;4864698;29;20112;-94
2022/12/29 11:29:49;;;;;;;9.18;2.00;;;;;;;10.06;81.76;100296.34;4884826;29;20047;-92
2022/12/29 11:32:29;;;;;;;13.98;1.73;;;;;;;10.22;80.89;100302.63;4877365;29;20025;-93
2022/12/29 11:34:57;;;;;;;5.28;1.83;;;;;;;10.26;80.00;100303.41;4860774;29;20040;-93
2022/12/29 11:37:30;;;;;;;9.23;1.75;;;;;;;10.43;80.01;100310.50;4873432;29;20048;-94
2022/12/29 11:40:04;;;;;;;10.32;1.48;;;;;;;10.45;79.66;100306.88;4875622;29;20048;-92
2022/12/29 11:42:35;;;;;;;7.78;1.50;;;;;;;10.47;78.24;100302.34;4858351;29;20062;-94
2022/12/29 11:45:06;;;;;;;8.43;1.38;;;;;;;10.44;77.78;100291.94;4874583;29;20029;-93
2022/12/29 11:47:33;;;;;;;5.95;1.90;;;;;;;10.41;77.92;100292.09;4864121;29;20121;-94
2022/12/29 11:50:01;;;;;;;8.75;2.03;;;;;;;10.51;77.35;100332.13;4859479;29;20148;-95
2022/12/29 11:52:32;;;;;;;11.00;2.13;;;;;;;10.50;77.10;100316.34;4860660;29;20264;-93
2022/12/29 11:55:01;;;;;;;3.70;1.60;;;;;;;10.42;76.95;100303.50;4845963;29;20135;-92
2022/12/29 11:57:27;;;;;;;6.72;1.45;;;;;;;10.50;77.16;100317.22;4855192;29;20512;-93
2022/12/29 11:59:55;;;;;;;6.82;1.65;;;;;;;10.58;76.55;100311.53;4875097;29;20545;-92
2022/12/29 12:02:33;;;;;;;7.28;1.40;;;;;;;10.73;76.75;100327.53;4859910;29;20040;-93
2022/12/29 12:05:10;;;;;;;9.88;2.40;;;;;;;10.77;76.96;100330.00;4873419;29;20033;-93
2022/12/29 12:07:45;;;;;;;10.32;1.70;;;;;;;10.68;76.53;100312.81;4870244;29;20393;-93
2022/12/29 12:10:24;;;;;;;6.18;2.83;;;;;;;10.97;75.41;100316.66;4874075;29;20041;-93
2022/12/29 12:13:04;;;;;;;11.60;1.90;;;;;;;11.19;74.35;100325.22;4876983;29;20041;-92
2022/12/29 12:15:42;;;;;;;13.60;1.85;;;;;;;11.63;73.18;100329.16;4872200;29;20040;-93
2022/12/29 12:18:21;;;;;;;7.72;1.90;;;;;;;11.91;72.63;100332.06;4857386;29;20029;-92
2022/12/29 12:21:04;;;;;;;8.77;1.83;;;;;;;11.56;71.63;100325.09;4871958;29;20117;-92